createdAt,value
2022-10-05T00:02:22.033Z,101207.84
2022-10-05T00:04:51.868Z,101198.16
2022-10-05T00:07:23.671Z,101202.66
2022-10-05T00:09:56.565Z,101208.88
2022-10-05T00:12:24.490Z,101211.22
2022-10-05T00:14:53.920Z,101206.13
2022-10-05T00:17:26.594Z,101199.13
2022-10-05T00:19:54.113Z,101189.28
2022-10-05T00:22:24.005Z,101185.56
2022-10-05T00:24:56.300Z,101197.97
2022-10-05T00:27:25.753Z,101206.78
2022-10-05T00:29:54.048Z,101202.47
2022-10-05T00:32:21.079Z,101196.34
2022-10-05T00:34:48.121Z,101201.16
2022-10-05T00:37:15.159Z,101201.34
2022-10-05T00:39:42.438Z,101207.16
2022-10-05T00:42:29.792Z,101195.69
2022-10-05T00:45:22.135Z,101200.97
2022-10-05T00:47:52.136Z,101186.09
2022-10-05T00:50:31.049Z,101182.75
2022-10-05T00:53:04.094Z,101173.00
2022-10-05T00:55:47.991Z,101174.09
2022-10-05T00:58:37.961Z,101182.84
2022-10-05T01:01:36.434Z,101177.56
2022-10-05T01:04:34.440Z,101162.00
2022-10-05T01:07:26.543Z,101165.56
2022-10-05T01:10:06.603Z,101161.63
2022-10-05T01:12:50.634Z,101166.75
2022-10-05T01:15:25.172Z,101161.16
2022-10-05T01:18:16.835Z,101168.13
2022-10-05T01:20:46.872Z,101177.13
2022-10-05T01:23:40.193Z,101166.31
2022-10-05T01:26:34.248Z,101157.00
2022-10-05T01:29:23.007Z,101145.72
2022-10-05T01:32:10.859Z,101137.09
2022-10-05T01:34:53.228Z,101136.31
2022-10-05T01:37:33.005Z,101155.22
2022-10-05T01:40:19.410Z,101151.19
2022-10-05T01:43:20.837Z,101153.81
2022-10-05T01:46:01.998Z,101154.38
2022-10-05T01:48:52.293Z,101151.50
2022-10-05T01:51:45.833Z,101151.44
2022-10-05T01:54:31.309Z,101144.22
2022-10-05T01:57:16.132Z,101149.91
2022-10-05T02:00:06.543Z,101155.16
2022-10-05T02:02:40.062Z,101156.03
2022-10-05T02:05:11.299Z,101157.81
2022-10-05T02:08:15.812Z,101161.19
2022-10-05T02:10:48.230Z,101158.66
2022-10-05T02:13:30.765Z,101165.94
2022-10-05T02:16:08.640Z,101172.34
2022-10-05T02:18:49.337Z,101171.34
2022-10-05T02:21:17.217Z,101170.50
2022-10-05T02:23:45.120Z,101168.72
2022-10-05T02:26:12.655Z,101166.78
2022-10-05T02:28:47.875Z,101163.91
2022-10-05T02:31:40.282Z,101163.13
2022-10-05T02:34:26.227Z,101168.56
2022-10-05T02:37:32.034Z,101164.06
2022-10-05T02:40:10.707Z,101167.53
2022-10-05T02:43:15.050Z,101168.94
2022-10-05T02:46:00.609Z,101165.63
2022-10-05T02:48:56.642Z,101164.63
2022-10-05T02:51:31.905Z,101153.91
2022-10-05T02:54:12.254Z,101163.44
2022-10-05T02:56:52.478Z,101162.47
2022-10-05T02:59:34.723Z,101159.97
2022-10-05T03:02:13.936Z,101159.41
2022-10-05T03:05:08.035Z,101153.75
2022-10-05T03:08:10.873Z,101141.22
2022-10-05T03:11:01.332Z,101145.41
2022-10-05T03:13:45.272Z,101140.22
2022-10-05T03:16:30.587Z,101141.31
2022-10-05T03:19:36.948Z,101142.63
2022-10-05T03:22:12.669Z,101141.06
2022-10-05T03:24:48.617Z,101134.94
2022-10-05T03:27:18.599Z,101133.72
2022-10-05T03:29:54.371Z,101135.41
2022-10-05T03:32:43.387Z,101129.94
2022-10-05T03:35:28.280Z,101120.47
2022-10-05T03:38:11.903Z,101117.09
2022-10-05T03:41:17.889Z,101116.91
2022-10-05T03:44:09.416Z,101116.66
2022-10-05T03:46:49.161Z,101112.09
2022-10-05T03:49:24.568Z,101114.75
2022-10-05T03:52:19.466Z,101109.72
2022-10-05T03:54:54.053Z,101106.00
2022-10-05T03:57:23.934Z,101104.22
2022-10-05T04:00:00.740Z,101101.66
2022-10-05T04:02:38.344Z,101092.69
2022-10-05T04:05:14.167Z,101095.56
2022-10-05T04:08:03.373Z,101092.59
2022-10-05T04:10:42.128Z,101095.47
2022-10-05T04:13:46.255Z,101095.19
2022-10-05T04:16:16.519Z,101097.09
2022-10-05T04:18:57.389Z,101099.41
2022-10-05T04:21:28.456Z,101094.25
2022-10-05T04:24:03.621Z,101089.72
2022-10-05T04:26:33.479Z,101092.31
2022-10-05T04:29:14.294Z,101097.47
2022-10-05T04:31:52.464Z,101098.19
2022-10-05T04:34:40.009Z,101088.78
2022-10-05T04:37:11.736Z,101091.44
2022-10-05T04:40:15.671Z,101093.38
2022-10-05T04:42:58.775Z,101089.22
2022-10-05T04:45:52.654Z,101089.91
2022-10-05T04:48:44.526Z,101093.38
2022-10-05T04:51:20.623Z,101096.16
2022-10-05T04:53:57.021Z,101096.41
2022-10-05T04:56:43.483Z,101102.38
2022-10-05T04:59:40.099Z,101102.66
2022-10-05T05:02:25.243Z,101102.59
2022-10-05T05:05:33.918Z,101098.81
2022-10-05T05:08:30.699Z,101089.22
2022-10-05T05:11:05.932Z,101089.91
2022-10-05T05:13:57.547Z,101092.69
2022-10-05T05:16:44.766Z,101086.72
2022-10-05T05:19:28.150Z,101085.97
2022-10-05T05:22:05.627Z,101091.16
2022-10-05T05:24:44.619Z,101094.72
2022-10-05T05:27:26.185Z,101101.53
2022-10-05T05:30:03.702Z,101090.06
2022-10-05T05:32:53.716Z,101091.91
2022-10-05T05:35:26.537Z,101081.84
2022-10-05T05:38:02.307Z,101077.50
2022-10-05T05:40:35.255Z,101069.38
2022-10-05T05:43:07.921Z,101066.38
2022-10-05T05:45:53.965Z,101061.63
2022-10-05T05:48:39.640Z,101055.00
2022-10-05T05:51:10.727Z,101062.94
2022-10-05T05:53:43.878Z,101069.69
2022-10-05T05:56:21.245Z,101073.00
2022-10-05T05:59:03.464Z,101090.59
2022-10-05T06:01:34.314Z,101088.66
2022-10-05T06:04:26.087Z,101078.91
2022-10-05T06:06:54.148Z,101076.69
2022-10-05T06:09:26.058Z,101079.34
2022-10-05T06:12:00.629Z,101080.28
2022-10-05T06:14:35.370Z,101070.53
2022-10-05T06:17:17.848Z,101081.66
2022-10-05T06:19:46.243Z,101080.03
2022-10-05T06:22:25.984Z,101082.59
2022-10-05T06:25:14.971Z,101079.09
2022-10-05T06:28:03.091Z,101083.28
2022-10-05T06:30:53.043Z,101091.88
2022-10-05T06:33:24.404Z,101100.81
2022-10-05T06:36:29.271Z,101098.00
2022-10-05T06:39:14.191Z,101096.06
2022-10-05T06:41:54.149Z,101095.97
2022-10-05T06:44:39.996Z,101100.75
2022-10-05T06:47:31.004Z,101100.75
2022-10-05T06:50:32.468Z,101090.53
2022-10-05T06:53:29.113Z,101091.28
2022-10-05T06:56:18.491Z,101100.44
2022-10-05T06:59:19.101Z,101105.72
2022-10-05T07:01:53.720Z,101106.56
2022-10-05T07:04:52.468Z,101096.38
2022-10-05T07:07:34.754Z,101099.59
2022-10-05T07:10:23.471Z,101099.22
2022-10-05T07:13:00.527Z,101096.41
2022-10-05T07:15:44.893Z,101097.91
2022-10-05T07:18:22.351Z,101096.50
2022-10-05T07:21:17.160Z,101104.06
2022-10-05T07:24:08.692Z,101099.38
2022-10-05T07:27:01.573Z,101100.81
2022-10-05T07:29:48.009Z,101097.19
2022-10-05T07:32:21.297Z,101104.00
2022-10-05T07:35:44.727Z,101106.38
2022-10-05T07:38:33.643Z,101103.47
2022-10-05T07:41:12.014Z,101102.38
2022-10-05T07:44:02.339Z,101099.16
2022-10-05T07:46:45.527Z,101103.72
2022-10-05T07:49:24.225Z,101109.00
2022-10-05T07:51:55.466Z,101119.88
2022-10-05T07:54:59.812Z,101125.16
2022-10-05T07:57:38.393Z,101105.75
2022-10-05T08:00:22.782Z,101103.09
2022-10-05T08:03:16.894Z,101103.63
2022-10-05T08:05:46.917Z,101109.38
2022-10-05T08:08:49.812Z,101111.59
2022-10-05T08:11:19.573Z,101106.59
2022-10-05T08:13:52.866Z,101106.75
2022-10-05T08:16:20.303Z,101096.47
2022-10-05T08:19:06.672Z,101077.81
2022-10-05T08:21:42.263Z,101078.19
2022-10-05T08:24:34.253Z,101077.53
2022-10-05T08:27:16.443Z,101079.59
2022-10-05T08:29:49.150Z,101079.16
2022-10-05T08:32:24.423Z,101075.34
2022-10-05T08:35:33.999Z,101066.22
2022-10-05T08:38:10.573Z,101052.59
2022-10-05T08:40:46.779Z,101046.63
2022-10-05T08:43:54.828Z,101056.28
2022-10-05T08:46:58.623Z,101054.97
2022-10-05T08:49:56.951Z,101054.38
2022-10-05T08:52:32.767Z,101045.69
2022-10-05T08:55:18.290Z,101039.91
2022-10-05T08:57:48.177Z,101036.97
2022-10-05T09:00:19.788Z,101033.78
2022-10-05T09:03:18.111Z,101038.28
2022-10-05T09:06:22.668Z,101039.06
2022-10-05T09:09:14.643Z,101040.03
2022-10-05T09:12:32.692Z,101045.88
2022-10-05T09:15:25.906Z,101039.22
2022-10-05T09:18:27.430Z,101029.91
2022-10-05T09:20:59.148Z,101036.31
2022-10-05T09:23:43.667Z,101047.63
2022-10-05T09:26:41.721Z,101035.56
2022-10-05T09:29:47.125Z,101030.56
2022-10-05T09:32:24.993Z,101024.00
2022-10-05T09:35:33.974Z,101024.44
2022-10-05T09:38:39.292Z,101018.25
2022-10-05T09:41:48.952Z,101021.53
2022-10-05T09:44:41.225Z,101014.94
2022-10-05T09:47:48.037Z,101020.34
2022-10-05T09:50:45.535Z,101008.34
2022-10-05T09:53:40.627Z,101019.16
2022-10-05T09:56:25.837Z,101007.69
2022-10-05T09:59:18.835Z,101018.09
2022-10-05T10:02:07.384Z,101008.00
2022-10-05T10:05:01.680Z,100997.81
2022-10-05T10:08:06.133Z,101008.09
2022-10-05T10:11:00.563Z,101005.22
2022-10-05T10:13:45.747Z,101000.09
2022-10-05T10:16:15.304Z,101007.09
2022-10-05T10:19:06.018Z,100995.13
2022-10-05T10:21:51.952Z,101011.00
2022-10-05T10:24:35.298Z,100999.66
2022-10-05T10:27:02.511Z,100999.94
2022-10-05T10:29:58.626Z,101010.22
2022-10-05T10:32:57.441Z,101011.13
2022-10-05T10:35:36.577Z,101015.47
2022-10-05T10:38:26.580Z,101014.91
2022-10-05T10:41:05.592Z,101019.69
2022-10-05T10:43:57.300Z,101009.47
2022-10-05T10:46:30.281Z,101010.09
2022-10-05T10:49:12.246Z,101019.53
2022-10-05T10:51:57.134Z,101021.81
2022-10-05T10:54:35.139Z,101020.91
2022-10-05T10:57:03.988Z,101016.44
2022-10-05T10:59:55.702Z,101009.25
2022-10-05T11:02:46.447Z,101017.72
2022-10-05T11:05:13.488Z,101011.22
2022-10-05T11:07:43.082Z,101007.34
2022-10-05T11:10:18.085Z,101002.53
2022-10-05T11:13:03.650Z,101007.97
2022-10-05T11:15:56.808Z,101004.72
2022-10-05T11:18:41.363Z,100993.78
2022-10-05T11:21:30.309Z,100996.59
2022-10-05T11:24:32.586Z,100989.38
2022-10-05T11:27:18.271Z,100983.53
2022-10-05T11:30:16.003Z,100979.69
2022-10-05T11:33:17.543Z,100979.44
2022-10-05T11:36:09.972Z,100971.31
2022-10-05T11:39:07.874Z,100966.75
2022-10-05T11:41:46.895Z,100966.13
2022-10-05T11:44:45.537Z,100966.41
2022-10-05T11:47:28.331Z,100971.97
2022-10-05T11:50:17.801Z,100955.81
2022-10-05T11:53:07.842Z,100954.63
2022-10-05T11:55:45.163Z,100952.50
2022-10-05T11:58:12.140Z,100950.91
2022-10-05T12:00:44.846Z,100953.53
2022-10-05T12:03:39.816Z,100960.19
2022-10-05T12:06:24.056Z,100952.41
2022-10-05T12:08:56.831Z,100948.31
2022-10-05T12:11:43.012Z,100941.41
2022-10-05T12:14:29.302Z,100936.38
2022-10-05T12:17:15.789Z,100938.59
2022-10-05T12:19:46.820Z,100937.91
2022-10-05T12:22:21.471Z,100939.75
2022-10-05T12:25:02.492Z,100931.13
2022-10-05T12:27:38.142Z,100917.78
2022-10-05T12:30:24.630Z,100932.44
2022-10-05T12:33:05.893Z,100922.13
2022-10-05T12:35:48.386Z,100924.03
2022-10-05T12:38:35.084Z,100924.81
2022-10-05T12:41:26.520Z,100912.81
2022-10-05T12:44:08.982Z,100909.59
2022-10-05T12:47:07.095Z,100903.81
2022-10-05T12:50:30.814Z,100915.81
2022-10-05T12:53:15.821Z,100907.94
2022-10-05T12:55:53.454Z,100895.88
2022-10-05T12:58:22.732Z,100904.31
2022-10-05T13:01:01.265Z,100909.16
2022-10-05T13:03:35.027Z,100921.09
2022-10-05T13:06:08.516Z,100893.59
2022-10-05T13:08:50.435Z,100914.06
2022-10-05T13:11:33.357Z,100909.16
2022-10-05T13:14:18.945Z,100895.06
2022-10-05T13:16:45.908Z,100912.38
2022-10-05T13:19:34.553Z,100909.25
2022-10-05T13:22:15.783Z,100906.19
2022-10-05T13:24:52.817Z,100902.34
2022-10-05T13:27:28.010Z,100906.31
2022-10-05T13:30:06.563Z,100888.41
2022-10-05T13:32:36.766Z,100891.69
2022-10-05T13:35:41.382Z,100895.00
2022-10-05T13:38:38.535Z,100890.34
2022-10-05T13:41:12.811Z,100896.16
2022-10-05T13:44:01.625Z,100887.19
2022-10-05T13:47:09.101Z,100890.13
2022-10-05T13:50:00.393Z,100887.78
2022-10-05T13:52:27.470Z,100879.06
2022-10-05T13:55:13.809Z,100890.47
2022-10-05T13:57:53.562Z,100877.53
2022-10-05T14:00:25.639Z,100886.38
2022-10-05T14:02:56.641Z,100868.50
2022-10-05T14:05:25.848Z,100874.53
2022-10-05T14:08:01.793Z,100871.66
2022-10-05T14:10:43.679Z,100871.41
2022-10-05T14:13:23.713Z,100875.44
2022-10-05T14:16:18.470Z,100876.88
2022-10-05T14:18:58.335Z,100874.25
2022-10-05T14:21:28.851Z,100885.69
2022-10-05T14:23:58.644Z,100864.34
2022-10-05T14:26:25.652Z,100861.34
2022-10-05T14:29:14.750Z,100862.59
2022-10-05T14:31:53.642Z,100858.13
2022-10-05T14:34:58.909Z,100853.09
2022-10-05T14:37:32.350Z,100859.25
2022-10-05T14:40:21.209Z,100846.06
2022-10-05T14:42:48.376Z,100837.19
2022-10-05T14:45:18.882Z,100835.34
2022-10-05T14:47:50.348Z,100837.94
2022-10-05T14:50:25.294Z,100848.19
2022-10-05T14:53:10.889Z,100830.00
2022-10-05T14:55:50.453Z,100826.97
2022-10-05T14:58:56.369Z,100830.72
2022-10-05T15:01:26.188Z,100813.41
2022-10-05T15:04:08.211Z,100821.28
2022-10-05T15:06:41.384Z,100822.03
2022-10-05T15:09:30.785Z,100819.03
2022-10-05T15:12:00.198Z,100814.00
2022-10-05T15:14:32.567Z,100820.34
2022-10-05T15:17:20.578Z,100833.78
2022-10-05T15:20:19.211Z,100819.53
2022-10-05T15:22:50.254Z,100819.28
2022-10-05T15:25:26.961Z,100821.66
2022-10-05T15:28:09.563Z,100821.09
2022-10-05T15:30:43.132Z,100822.94
2022-10-05T15:33:27.545Z,100827.19
2022-10-05T15:36:06.481Z,100823.03
2022-10-05T15:38:36.898Z,100819.78
2022-10-05T15:41:21.715Z,100825.97
2022-10-05T15:43:58.451Z,100816.69
2022-10-05T15:46:34.625Z,100820.88
2022-10-05T15:49:23.324Z,100834.31
2022-10-05T15:51:56.503Z,100818.97
2022-10-05T15:54:41.909Z,100815.00
2022-10-05T15:57:21.083Z,100812.72
2022-10-05T16:00:01.456Z,100812.16
2022-10-05T16:02:43.438Z,100827.22
2022-10-05T16:05:43.735Z,100816.13
2022-10-05T16:08:37.176Z,100810.31
2022-10-05T16:11:08.735Z,100817.09
2022-10-05T16:13:47.098Z,100824.97
2022-10-05T16:16:23.492Z,100823.19
2022-10-05T16:19:09.913Z,100810.97
2022-10-05T16:21:46.346Z,100823.38
2022-10-05T16:24:22.435Z,100814.41
2022-10-05T16:27:01.163Z,100806.84
2022-10-05T16:29:53.433Z,100812.19
2022-10-05T16:32:24.286Z,100805.00
2022-10-05T16:35:26.724Z,100801.94
2022-10-05T16:38:18.131Z,100801.06
2022-10-05T16:41:09.621Z,100804.84
2022-10-05T16:43:45.478Z,100803.38
2022-10-05T16:46:38.177Z,100799.72
2022-10-05T16:49:30.974Z,100798.56
2022-10-05T16:52:02.077Z,100802.75
2022-10-05T16:54:35.909Z,100800.16
2022-10-05T16:57:10.713Z,100793.94
2022-10-05T17:00:08.869Z,100809.66
2022-10-05T17:02:58.410Z,100800.28
2022-10-05T17:05:55.077Z,100801.94
2022-10-05T17:08:46.573Z,100804.69
2022-10-05T17:11:35.294Z,100800.28
2022-10-05T17:14:20.942Z,100810.34
2022-10-05T17:17:17.696Z,100813.72
2022-10-05T17:20:15.586Z,100811.88
2022-10-05T17:23:04.193Z,100806.50
2022-10-05T17:25:49.660Z,100812.38
2022-10-05T17:28:40.037Z,100816.13
2022-10-05T17:31:21.585Z,100816.91
2022-10-05T17:34:10.509Z,100819.94
2022-10-05T17:36:42.867Z,100819.69
2022-10-05T17:39:16.038Z,100828.00
2022-10-05T17:41:43.435Z,100822.56
2022-10-05T17:44:13.483Z,100823.41
2022-10-05T17:46:47.371Z,100818.72
2022-10-05T17:49:20.216Z,100812.66
2022-10-05T17:52:11.591Z,100820.09
2022-10-05T17:55:03.198Z,100821.44
2022-10-05T17:57:31.474Z,100819.75
2022-10-05T18:00:01.850Z,100814.16
2022-10-05T18:02:36.205Z,100812.72
2022-10-05T18:05:06.992Z,100808.38
2022-10-05T18:07:34.840Z,100809.09
2022-10-05T18:10:17.140Z,100806.44
2022-10-05T18:13:00.629Z,100808.44
2022-10-05T18:15:27.637Z,100812.34
2022-10-05T18:17:57.994Z,100800.63
2022-10-05T18:20:27.680Z,100802.16
2022-10-05T18:23:03.795Z,100796.53
2022-10-05T18:25:48.325Z,100802.69
2022-10-05T18:28:43.456Z,100801.97
2022-10-05T18:31:29.135Z,100814.78
2022-10-05T18:34:14.800Z,100807.47
2022-10-05T18:37:07.116Z,100804.81
2022-10-05T18:39:51.858Z,100802.25
2022-10-05T18:42:24.471Z,100800.25
2022-10-05T18:45:04.005Z,100801.69
2022-10-05T18:47:47.651Z,100794.78
2022-10-05T18:50:34.004Z,100797.22
2022-10-05T18:53:12.229Z,100800.25
2022-10-05T18:55:43.610Z,100807.38
2022-10-05T18:58:33.241Z,100802.28
2022-10-05T19:01:10.638Z,100800.84
2022-10-05T19:04:04.520Z,100791.47
2022-10-05T19:06:44.438Z,100808.97
2022-10-05T19:09:34.831Z,100805.19
2022-10-05T19:12:14.687Z,100798.81
2022-10-05T19:15:12.131Z,100800.88
2022-10-05T19:17:58.557Z,100809.31
2022-10-05T19:20:54.090Z,100811.59
2022-10-05T19:23:47.923Z,100817.66
2022-10-05T19:26:18.920Z,100820.16
2022-10-05T19:29:02.264Z,100827.06
2022-10-05T19:31:37.328Z,100825.38
2022-10-05T19:34:16.236Z,100837.06
2022-10-05T19:36:56.185Z,100836.34
2022-10-05T19:39:39.576Z,100833.91
2022-10-05T19:42:45.327Z,100847.53
2022-10-05T19:45:29.238Z,100848.88
2022-10-05T19:48:08.464Z,100845.84
2022-10-05T19:50:37.695Z,100853.81
2022-10-05T19:53:10.293Z,100855.16
2022-10-05T19:55:46.857Z,100860.69
2022-10-05T19:58:23.324Z,100858.34
2022-10-05T20:00:59.385Z,100861.69
2022-10-05T20:03:31.425Z,100865.19
2022-10-05T20:06:00.547Z,100861.69
2022-10-05T20:08:36.599Z,100864.91
2022-10-05T20:11:11.711Z,100870.44
2022-10-05T20:13:52.083Z,100871.94
2022-10-05T20:16:45.696Z,100880.41
2022-10-05T20:19:49.750Z,100874.25
2022-10-05T20:22:37.953Z,100882.44
2022-10-05T20:25:18.379Z,100892.19
2022-10-05T20:27:48.035Z,100897.97
2022-10-05T20:30:20.079Z,100899.56
2022-10-05T20:32:50.982Z,100900.50
2022-10-05T20:35:21.508Z,100911.94
2022-10-05T20:37:49.883Z,100913.16
2022-10-05T20:40:18.684Z,100900.56
2022-10-05T20:42:46.539Z,100907.69
2022-10-05T20:45:14.276Z,100913.06
2022-10-05T20:47:42.065Z,100909.84
2022-10-05T20:50:10.526Z,100916.47
2022-10-05T20:52:38.328Z,100922.97
2022-10-05T20:55:10.284Z,100927.88
2022-10-05T20:57:42.232Z,100915.69
2022-10-05T21:00:10.734Z,100929.16
2022-10-05T21:02:39.423Z,100925.78
2022-10-05T21:05:07.583Z,100930.84
2022-10-05T21:07:35.197Z,100926.38
2022-10-05T21:10:03.635Z,100926.50
2022-10-05T21:12:30.972Z,100936.50
2022-10-05T21:14:59.689Z,100936.28
2022-10-05T21:17:26.803Z,100939.06
2022-10-05T21:19:53.913Z,100940.63
2022-10-05T21:22:20.990Z,100943.19
2022-10-05T21:24:48.414Z,100939.56
2022-10-05T21:27:15.511Z,100939.78
2022-10-05T21:29:44.004Z,100939.97
2022-10-05T21:32:11.892Z,100942.44
2022-10-05T21:34:39.591Z,100938.38
2022-10-05T21:37:07.442Z,100948.03
2022-10-05T21:39:35.233Z,100939.09
2022-10-05T21:42:02.304Z,100942.94
2022-10-05T21:44:29.366Z,100946.09
2022-10-05T21:46:56.594Z,100948.03
2022-10-05T21:49:24.501Z,100952.59
2022-10-05T21:51:51.567Z,100955.97
2022-10-05T21:54:20.657Z,100958.41
2022-10-05T21:56:50.769Z,100968.78
2022-10-05T21:59:26.987Z,100954.78
2022-10-05T22:01:58.971Z,100963.94
2022-10-05T22:04:26.472Z,100955.84
2022-10-05T22:06:54.994Z,100959.63
2022-10-05T22:09:22.063Z,100961.56
2022-10-05T22:11:49.234Z,100958.91
2022-10-05T22:14:16.368Z,100961.56
2022-10-05T22:16:44.330Z,100967.38
2022-10-05T22:19:15.188Z,100959.63
2022-10-05T22:21:43.402Z,100963.97
2022-10-05T22:24:11.595Z,100962.81
2022-10-05T22:26:40.662Z,100963.88
2022-10-05T22:29:07.716Z,100962.53
2022-10-05T22:31:34.911Z,100971.03
2022-10-05T22:34:02.074Z,100971.03
2022-10-05T22:36:29.108Z,100972.28
2022-10-05T22:38:56.172Z,100979.63
2022-10-05T22:41:23.274Z,100980.47
2022-10-05T22:43:51.223Z,100972.00
2022-10-05T22:46:18.565Z,100980.19
2022-10-05T22:48:45.817Z,100986.31
2022-10-05T22:51:12.881Z,100977.53
2022-10-05T22:53:39.920Z,100979.97
2022-10-05T22:56:13.421Z,100976.34
2022-10-05T22:58:41.333Z,100978.78
2022-10-05T23:01:10.691Z,100992.78
2022-10-05T23:03:37.996Z,100986.50
2022-10-05T23:06:10.386Z,100993.41
2022-10-05T23:08:38.086Z,100995.09
2022-10-05T23:11:17.708Z,100995.75
2022-10-05T23:13:44.938Z,100999.03
2022-10-05T23:16:17.288Z,100994.47
2022-10-05T23:18:44.682Z,101003.38
2022-10-05T23:21:11.786Z,100993.94
2022-10-05T23:23:40.438Z,101000.44
2022-10-05T23:26:08.851Z,101003.41
2022-10-05T23:28:36.338Z,101000.97
2022-10-05T23:31:06.391Z,101006.41
2022-10-05T23:33:34.003Z,101007.16
2022-10-05T23:36:09.961Z,101010.00
2022-10-05T23:38:37.502Z,101019.13
2022-10-05T23:41:05.248Z,101016.47
2022-10-05T23:43:35.621Z,101024.50
2022-10-05T23:46:03.781Z,101021.66
2022-10-05T23:48:31.809Z,101021.97
2022-10-05T23:50:59.397Z,101018.28
2022-10-05T23:53:26.641Z,101033.22
2022-10-05T23:55:54.399Z,101033.94
2022-10-05T23:58:22.697Z,101036.06
